首页
METAR-TAF:

METAR-TAF

机场 :

底特律, 密歇根州, 美国

纬度: 42-14-12N, 经度: 083-31-34W, 海拔: 218米

当前天气观测

该预报发布于35分钟前的15:53 UTC
风速12节,风向东转东南
温度 1°C
湿度 64%
气压 1025 hPa
能見度: 16.1公里
少量云层高于9000英尺

METAR: KYIP 171553Z 12012KT 10SM FEW090 01/M05 A3027 RMK AO2 SLP255 T00061050 $

时间: 11:28 (16:28 UTC)

预报

该预报发布于5小时和8分钟前的11:20 UTC
预报有效从17日的 12点(UTC)到 18日的 12点(UTC)
风速4节,风向东转东北
能見度: 10公里
多云层高于10000英尺
从 17日的 1500点(UTC)
风速7节,风向东转东南
能見度: 10公里
少量云层高于2000英尺
多云层高于15000英尺
从 17日的 2200点(UTC)
风速12节,风向东南
能見度: 10公里
阴天层高于7000英尺
从 18日的 0000点(UTC)
风速12节,风向东南
能見度: 6.4公里
阴天层高于1500英尺
小雨, 雪, 轻雾
从 18日的 0300点(UTC)
风速11节,风向东南
能見度: 2.4公里
阴天层高于800英尺
小雨, 轻雾
从 18日的 0800点(UTC)
风速10节,风向南转西南
能見度: 1.6公里
阴天层高于1000英尺
轻雾

TAF: KYIP 171120Z 1712/1812 06004KT P6SM BKN100 FM171500 11007KT P6SM FEW020 BKN150 FM172200 13012KT P6SM OVC070 FM180000 13012KT 4SM -RASN BR OVC015 FM180300 14011KT 1 1/2SM -RA BR OVC008 FM180800 20010KT 4SM BR OVC010

超过4000个机场的气象观测和天气预报(METAR&TAF报告)。

可查询的气象台以黄色和红色小点在地图上表示。

将鼠标移到小点上方,可查看气象台名称。

然后点击查看天气观测和预报。

如需切换地图:点击带黑十字的绿色按钮放大地图;点击带横线的绿色按钮缩小地图;或者点击绿色箭头查看邻近地区的地图。


METAR-TAF: